createdAt,value
2023-01-10T00:01:08.987Z,21.08
2023-01-10T00:03:12.321Z,24.00
2023-01-10T00:05:14.469Z,17.90
2023-01-10T00:07:16.251Z,15.40
2023-01-10T00:09:18.163Z,21.52
2023-01-10T00:11:29.269Z,30.55
2023-01-10T00:13:31.043Z,16.23
2023-01-10T00:15:33.803Z,24.73
2023-01-10T00:17:35.578Z,18.95
2023-01-10T00:19:37.474Z,16.48
2023-01-10T00:21:39.968Z,15.95
2023-01-10T00:23:43.476Z,16.90
2023-01-10T00:25:45.286Z,18.77
2023-01-10T00:27:55.373Z,21.85
2023-01-10T00:30:00.514Z,18.33
2023-01-10T00:32:02.381Z,19.67
2023-01-10T00:34:04.225Z,15.93
2023-01-10T00:36:07.874Z,15.45
2023-01-10T00:38:12.494Z,15.15
2023-01-10T00:40:14.621Z,27.48
2023-01-10T00:42:26.290Z,39.90
2023-01-10T00:44:28.160Z,22.08
2023-01-10T00:46:30.963Z,20.05
2023-01-10T00:48:32.772Z,20.42
2023-01-10T00:50:34.699Z,19.42
2023-01-10T00:52:36.499Z,16.58
2023-01-10T00:54:38.373Z,20.27
2023-01-10T00:56:40.477Z,15.43
2023-01-10T00:58:42.595Z,14.55
2023-01-10T01:00:49.960Z,18.33
2023-01-10T01:02:52.073Z,18.27
2023-01-10T01:04:53.942Z,22.13
2023-01-10T01:06:55.767Z,17.15
2023-01-10T01:08:58.005Z,23.02
2023-01-10T01:10:59.807Z,17.30
2023-01-10T01:13:08.330Z,15.85
2023-01-10T01:15:10.247Z,19.00
2023-01-10T01:17:12.284Z,20.30
2023-01-10T01:19:14.183Z,20.42
2023-01-10T01:21:16.049Z,18.70
2023-01-10T01:23:17.874Z,15.25
2023-01-10T01:25:19.782Z,18.10
2023-01-10T01:27:21.585Z,21.67
2023-01-10T01:29:26.227Z,18.85
2023-01-10T01:31:32.780Z,13.20
2023-01-10T01:33:35.036Z,20.00
2023-01-10T01:35:37.122Z,17.40
2023-01-10T01:37:38.923Z,24.20
2023-01-10T01:39:40.957Z,29.48
2023-01-10T01:41:52.325Z,20.25
2023-01-10T01:44:06.513Z,18.73
2023-01-10T01:46:08.295Z,15.05
2023-01-10T01:48:23.600Z,22.08
2023-01-10T01:50:32.257Z,14.25
2023-01-10T01:52:37.394Z,17.45
2023-01-10T01:54:39.609Z,22.38
2023-01-10T01:56:48.012Z,27.92
2023-01-10T01:58:52.392Z,17.13
2023-01-10T02:00:54.298Z,23.45
2023-01-10T02:03:02.916Z,18.10
2023-01-10T02:05:10.985Z,22.40
2023-01-10T02:07:13.982Z,20.05
2023-01-10T02:09:26.951Z,23.05
2023-01-10T02:11:30.242Z,14.48
2023-01-10T02:13:35.183Z,10.75
2023-01-10T02:15:37.057Z,15.68
2023-01-10T02:17:39.664Z,18.30
2023-01-10T02:19:50.795Z,17.75
2023-01-10T02:22:11.534Z,15.88
2023-01-10T02:24:24.029Z,17.73
2023-01-10T02:26:27.430Z,15.43
2023-01-10T02:28:51.755Z,18.90
2023-01-10T02:31:12.510Z,15.50
2023-01-10T02:33:23.723Z,18.65
2023-01-10T02:35:25.958Z,15.48
2023-01-10T02:37:37.165Z,19.33
2023-01-10T02:39:47.210Z,22.30
2023-01-10T02:42:04.405Z,28.00
2023-01-10T02:44:10.155Z,16.63
2023-01-10T02:46:18.601Z,19.60
2023-01-10T02:48:21.856Z,17.88
2023-01-10T02:50:28.123Z,23.65
2023-01-10T02:52:31.588Z,16.00
2023-01-10T02:54:33.484Z,20.40
2023-01-10T02:56:46.637Z,16.42
2023-01-10T02:59:07.553Z,19.17
2023-01-10T03:03:33.842Z,17.95
2023-01-10T03:05:55.690Z,13.73
2023-01-10T03:08:07.949Z,18.40
2023-01-10T03:10:15.717Z,20.80
2023-01-10T03:12:27.279Z,10.27
2023-01-10T03:14:32.028Z,14.65
2023-01-10T03:16:37.128Z,14.85
2023-01-10T03:18:48.154Z,12.57
2023-01-10T03:20:52.617Z,10.43
2023-01-10T03:22:56.345Z,17.27
2023-01-10T03:25:01.502Z,22.00
2023-01-10T03:27:12.141Z,17.88
2023-01-10T03:29:19.401Z,17.17
2023-01-10T03:31:28.535Z,18.45
2023-01-10T03:33:33.198Z,17.48
2023-01-10T03:35:54.522Z,11.65
2023-01-10T03:38:04.051Z,20.38
2023-01-10T03:40:12.210Z,13.82
2023-01-10T03:42:28.048Z,17.27
2023-01-10T03:44:44.358Z,20.83
2023-01-10T03:46:54.618Z,13.93
2023-01-10T03:48:58.549Z,16.80
2023-01-10T03:51:03.860Z,12.55
2023-01-10T03:53:06.243Z,15.60
2023-01-10T03:55:12.003Z,13.77
2023-01-10T03:57:19.030Z,22.20
2023-01-10T03:59:24.851Z,14.45
2023-01-10T04:01:27.516Z,17.85
2023-01-10T04:03:29.543Z,14.80
2023-01-10T04:05:31.400Z,24.23
2023-01-10T04:07:33.318Z,24.33
2023-01-10T04:09:35.238Z,20.45
2023-01-10T04:11:37.468Z,13.73
2023-01-10T04:13:42.163Z,15.73
2023-01-10T04:15:43.957Z,23.10
2023-01-10T04:17:45.929Z,22.13
2023-01-10T04:19:47.771Z,22.40
2023-01-10T04:21:49.543Z,18.10
2023-01-10T04:23:51.333Z,21.30
2023-01-10T04:25:53.142Z,14.00
2023-01-10T04:27:54.964Z,14.02
2023-01-10T04:29:56.911Z,11.52
2023-01-10T04:31:58.892Z,10.77
2023-01-10T04:34:00.668Z,13.85
2023-01-10T04:36:02.880Z,14.18
2023-01-10T04:38:04.695Z,12.60
2023-01-10T04:40:07.563Z,18.10
2023-01-10T04:42:09.407Z,20.48
2023-01-10T04:44:12.900Z,16.77
2023-01-10T04:46:14.769Z,16.65
2023-01-10T04:48:17.233Z,19.77
2023-01-10T04:50:19.259Z,12.60
2023-01-10T04:52:21.344Z,17.98
2023-01-10T04:54:23.528Z,17.38
2023-01-10T04:56:25.654Z,15.45
2023-01-10T04:58:27.528Z,15.40
2023-01-10T05:00:29.396Z,10.75
2023-01-10T05:02:31.352Z,18.55
2023-01-10T05:04:33.221Z,22.20
2023-01-10T05:06:35.107Z,13.80
2023-01-10T05:08:36.954Z,12.32
2023-01-10T05:10:38.777Z,14.35
2023-01-10T05:12:40.712Z,13.77
2023-01-10T05:14:42.617Z,11.50
2023-01-10T05:16:44.625Z,19.13
2023-01-10T05:18:46.481Z,19.13
2023-01-10T05:20:48.478Z,11.48
2023-01-10T05:22:50.303Z,16.23
2023-01-10T05:24:54.509Z,15.48
2023-01-10T05:26:56.497Z,15.57
2023-01-10T05:28:58.326Z,17.42
2023-01-10T05:31:00.358Z,19.90
2023-01-10T05:33:04.815Z,21.40
2023-01-10T05:35:07.408Z,11.95
2023-01-10T05:37:09.228Z,13.48
2023-01-10T05:39:11.088Z,14.95
2023-01-10T05:41:13.039Z,23.10
2023-01-10T05:43:14.801Z,18.50
2023-01-10T05:45:16.771Z,15.18
2023-01-10T05:47:18.691Z,18.23
2023-01-10T05:49:20.491Z,23.88
2023-01-10T05:51:22.329Z,13.13
2023-01-10T05:53:24.197Z,17.30
2023-01-10T05:55:25.977Z,16.33
2023-01-10T05:57:27.783Z,22.05
2023-01-10T05:59:29.584Z,16.98
2023-01-10T06:01:31.470Z,16.13
2023-01-10T06:03:33.310Z,21.85
2023-01-10T06:05:35.174Z,24.02
2023-01-10T06:07:37.441Z,21.77
2023-01-10T06:09:39.246Z,26.15
2023-01-10T06:11:41.091Z,17.60
2023-01-10T06:13:42.881Z,15.57
2023-01-10T06:15:44.703Z,16.73
2023-01-10T06:17:46.631Z,14.50
2023-01-10T06:19:48.606Z,15.77
2023-01-10T06:21:50.487Z,10.43
2023-01-10T06:23:52.370Z,25.73
2023-01-10T06:25:54.203Z,16.80
2023-01-10T06:27:56.189Z,19.60
2023-01-10T06:29:59.681Z,23.40
2023-01-10T06:32:01.523Z,19.35
2023-01-10T06:34:03.401Z,19.23
2023-01-10T06:36:05.777Z,20.75
2023-01-10T06:38:07.807Z,15.20
2023-01-10T06:40:11.473Z,18.90
2023-01-10T06:42:13.822Z,26.38
2023-01-10T06:44:15.622Z,10.73
2023-01-10T06:46:19.687Z,21.52
2023-01-10T06:48:22.091Z,15.52
2023-01-10T06:50:24.226Z,21.70
2023-01-10T06:52:26.014Z,18.05
2023-01-10T06:54:27.855Z,23.27
2023-01-10T06:56:29.801Z,19.98
2023-01-10T06:58:32.498Z,32.50
2023-01-10T07:00:34.523Z,24.27
2023-01-10T07:02:37.381Z,17.83
2023-01-10T07:04:39.271Z,23.60
2023-01-10T07:06:41.779Z,21.83
2023-01-10T07:08:45.761Z,21.70
2023-01-10T07:10:47.587Z,19.40
2023-01-10T07:12:49.347Z,24.65
2023-01-10T07:14:51.176Z,19.05
2023-01-10T07:16:53.007Z,24.17
2023-01-10T07:18:54.869Z,17.45
2023-01-10T07:20:56.777Z,18.70
2023-01-10T07:23:00.484Z,14.95
2023-01-10T07:25:02.375Z,21.63
2023-01-10T07:27:04.555Z,21.33
2023-01-10T07:29:06.496Z,18.60
2023-01-10T07:31:08.350Z,27.80
2023-01-10T07:33:10.317Z,25.70
2023-01-10T07:35:12.282Z,23.52
2023-01-10T07:37:14.096Z,18.58
2023-01-10T07:39:15.947Z,18.77
2023-01-10T07:41:17.894Z,24.25
2023-01-10T07:43:19.699Z,21.77
2023-01-10T07:45:21.679Z,19.67
2023-01-10T07:47:23.496Z,21.77
2023-01-10T07:49:25.301Z,21.08
2023-01-10T07:51:27.177Z,22.50
2023-01-10T07:53:30.020Z,26.83
2023-01-10T07:55:34.779Z,20.20
2023-01-10T07:57:36.701Z,24.23
2023-01-10T07:59:38.597Z,21.35
2023-01-10T08:01:40.473Z,20.70
2023-01-10T08:03:42.856Z,16.80
2023-01-10T08:05:45.103Z,20.63
2023-01-10T08:07:47.066Z,24.02
2023-01-10T08:09:48.958Z,20.92
2023-01-10T08:11:50.869Z,19.73
2023-01-10T08:13:52.800Z,13.90
2023-01-10T08:15:55.181Z,13.10
2023-01-10T08:18:03.440Z,18.17
2023-01-10T08:20:07.665Z,17.85
2023-01-10T08:22:09.654Z,20.50
2023-01-10T08:24:11.827Z,19.08
2023-01-10T08:26:13.757Z,16.30
2023-01-10T08:28:15.845Z,12.05
2023-01-10T08:30:18.122Z,14.02
2023-01-10T08:32:20.089Z,18.13
2023-01-10T08:34:22.469Z,15.98
2023-01-10T08:36:24.516Z,11.85
2023-01-10T08:38:26.484Z,13.68
2023-01-10T08:40:28.543Z,14.55
2023-01-10T08:42:30.446Z,13.98
2023-01-10T08:44:32.381Z,11.60
2023-01-10T08:46:34.390Z,11.50
2023-01-10T08:48:36.329Z,10.90
2023-01-10T08:50:38.402Z,11.93
2023-01-10T08:52:40.358Z,13.45
2023-01-10T08:54:42.351Z,9.57
2023-01-10T08:56:44.429Z,11.20
2023-01-10T08:58:46.379Z,11.80
2023-01-10T09:00:49.703Z,7.20
2023-01-10T09:02:52.112Z,6.72
2023-01-10T09:04:54.025Z,8.43
2023-01-10T09:06:56.524Z,8.85
2023-01-10T09:08:59.376Z,9.63
2023-01-10T09:11:02.124Z,13.13
2023-01-10T09:13:05.120Z,7.22
2023-01-10T09:15:08.224Z,8.80
2023-01-10T09:17:10.144Z,7.15
2023-01-10T09:19:12.599Z,10.00
2023-01-10T09:21:14.552Z,10.98
2023-01-10T09:23:20.389Z,8.73
2023-01-10T09:25:23.354Z,10.20
2023-01-10T09:27:25.385Z,9.00
2023-01-10T09:29:27.406Z,4.53
2023-01-10T09:31:29.429Z,6.22
2023-01-10T09:33:45.298Z,6.10
2023-01-10T09:35:48.571Z,3.75
2023-01-10T09:37:50.990Z,8.32
2023-01-10T09:39:53.157Z,3.63
2023-01-10T09:42:03.073Z,4.55
2023-01-10T09:44:05.522Z,2.28
2023-01-10T09:46:26.530Z,2.13
2023-01-10T09:48:38.706Z,3.30
2023-01-10T09:51:00.954Z,2.10
2023-01-10T09:53:13.209Z,7.28
2023-01-10T09:55:27.563Z,0.43
2023-01-10T09:57:29.706Z,1.45
2023-01-10T09:59:38.156Z,2.08
2023-01-10T10:01:40.506Z,0.00
2023-01-10T10:03:55.851Z,1.50
2023-01-10T10:06:10.833Z,1.20
2023-01-10T10:08:18.103Z,0.82
2023-01-10T10:10:26.630Z,0.93
2023-01-10T10:12:37.890Z,0.60
2023-01-10T10:14:55.423Z,1.77
2023-01-10T10:17:12.947Z,1.33
2023-01-10T10:19:33.187Z,0.75
2023-01-10T10:21:54.405Z,0.30
2023-01-10T10:23:58.048Z,2.10
2023-01-10T10:26:16.471Z,0.35
2023-01-10T10:28:53.549Z,0.55
2023-01-10T10:31:02.987Z,1.35
2023-01-10T10:33:06.326Z,1.50
2023-01-10T10:35:18.489Z,1.23
2023-01-10T10:37:33.009Z,0.20
2023-01-10T10:39:42.807Z,1.00
2023-01-10T10:41:48.431Z,0.43
2023-01-10T10:43:51.890Z,0.70
2023-01-10T10:45:59.089Z,0.22
2023-01-10T10:48:13.067Z,2.38
2023-01-10T10:50:15.693Z,2.30
2023-01-10T10:52:24.585Z,0.98
2023-01-10T10:54:26.570Z,2.70
2023-01-10T10:56:28.524Z,0.85
2023-01-10T10:58:32.282Z,2.47
2023-01-10T11:00:34.306Z,0.85
2023-01-10T11:02:50.417Z,0.50
2023-01-10T11:04:56.053Z,0.88
2023-01-10T11:06:58.234Z,0.38
2023-01-10T11:09:04.926Z,0.47
2023-01-10T11:11:22.286Z,2.20
2023-01-10T11:13:35.405Z,1.67
2023-01-10T11:15:40.895Z,1.92
2023-01-10T11:17:43.186Z,2.65
2023-01-10T11:19:56.992Z,0.40
2023-01-10T11:22:03.868Z,2.08
2023-01-10T11:24:06.591Z,0.73
2023-01-10T11:26:23.698Z,1.00
2023-01-10T11:28:30.255Z,4.63
2023-01-10T11:30:33.752Z,1.08
2023-01-10T11:32:48.662Z,2.83
2023-01-10T11:34:54.297Z,1.02
2023-01-10T11:37:18.267Z,0.68
2023-01-10T11:39:20.235Z,0.73
2023-01-10T11:41:31.841Z,3.47
2023-01-10T11:43:37.920Z,2.35
2023-01-10T11:45:40.821Z,2.42
2023-01-10T11:47:45.934Z,1.05
2023-01-10T11:49:49.969Z,1.30
2023-01-10T11:51:56.172Z,1.08
2023-01-10T11:54:02.733Z,1.65
2023-01-10T11:56:07.147Z,0.98
2023-01-10T11:58:15.393Z,0.50
2023-01-10T12:00:20.700Z,4.72
2023-01-10T12:02:28.090Z,1.20
2023-01-10T12:04:33.436Z,0.80
2023-01-10T12:06:35.598Z,1.20
2023-01-10T12:08:42.745Z,0.73
2023-01-10T12:11:02.060Z,0.70
2023-01-10T12:13:15.045Z,0.45
2023-01-10T12:15:27.177Z,6.72
2023-01-10T12:17:34.273Z,5.30
2023-01-10T12:19:36.413Z,0.25
2023-01-10T12:21:44.226Z,0.80
2023-01-10T12:23:49.147Z,0.85
2023-01-10T12:26:00.292Z,0.70
2023-01-10T12:28:22.073Z,0.80
2023-01-10T12:30:33.657Z,1.58
2023-01-10T12:32:42.370Z,4.50
2023-01-10T12:34:50.942Z,1.75
2023-01-10T12:37:09.322Z,2.63
2023-01-10T12:39:21.417Z,1.25
2023-01-10T12:41:40.314Z,2.45
2023-01-10T12:43:54.585Z,2.17
2023-01-10T12:46:16.759Z,2.40
2023-01-10T12:48:42.546Z,2.45
2023-01-10T12:50:54.282Z,2.45
2023-01-10T12:53:13.596Z,4.55
2023-01-10T12:55:17.503Z,6.35
2023-01-10T12:57:34.909Z,6.18
2023-01-10T12:59:41.875Z,4.47
2023-01-10T13:01:49.989Z,6.13
2023-01-10T13:03:59.857Z,10.38
2023-01-10T13:06:02.587Z,6.03
2023-01-10T13:08:11.947Z,12.90
2023-01-10T13:10:19.131Z,9.93
2023-01-10T13:12:34.300Z,12.57
2023-01-10T13:14:46.815Z,12.73
2023-01-10T13:16:51.606Z,11.15
2023-01-10T13:19:02.984Z,8.43
2023-01-10T13:21:13.763Z,15.07
2023-01-10T13:25:37.979Z,14.80
2023-01-10T13:27:40.078Z,16.35
2023-01-10T13:29:43.136Z,23.02
2023-01-10T13:31:45.763Z,24.08
2023-01-10T13:33:55.696Z,28.88
2023-01-10T13:36:08.809Z,30.73
2023-01-10T13:38:22.422Z,31.23
2023-01-10T13:40:28.474Z,31.73
2023-01-10T13:42:42.435Z,34.47
2023-01-10T13:45:03.646Z,37.10
2023-01-10T13:47:09.591Z,42.17
2023-01-10T13:49:11.957Z,33.28
2023-01-10T13:51:19.945Z,40.40
2023-01-10T13:53:22.341Z,33.92
2023-01-10T13:55:29.141Z,32.35
2023-01-10T13:57:50.202Z,35.90
2023-01-10T14:00:12.445Z,36.00
2023-01-10T14:02:28.465Z,43.22
2023-01-10T14:04:33.580Z,40.35
2023-01-10T14:06:41.360Z,39.75
2023-01-10T14:08:52.175Z,36.47
2023-01-10T14:13:18.985Z,41.42
2023-01-10T14:15:26.606Z,40.55
2023-01-10T14:17:32.182Z,37.42
2023-01-10T14:19:34.801Z,40.25
2023-01-10T14:21:45.465Z,40.13
2023-01-10T14:23:51.205Z,49.85
2023-01-10T14:25:57.507Z,51.20
2023-01-10T14:28:00.966Z,37.63
2023-01-10T14:30:03.841Z,34.88
2023-01-10T14:32:28.174Z,38.17
2023-01-10T14:34:37.108Z,26.35
2023-01-10T14:36:49.954Z,36.40
2023-01-10T14:38:57.203Z,37.00
2023-01-10T14:41:06.440Z,34.95
2023-01-10T14:43:15.849Z,33.55
2023-01-10T14:45:29.709Z,34.47
2023-01-10T14:47:34.920Z,26.27
2023-01-10T14:49:49.694Z,39.17
2023-01-10T14:51:53.210Z,34.17
2023-01-10T14:53:56.678Z,29.83
2023-01-10T14:55:59.363Z,24.33
2023-01-10T14:58:02.464Z,28.65
2023-01-10T15:00:09.645Z,26.58
2023-01-10T15:02:25.741Z,23.80
2023-01-10T15:04:31.186Z,19.77
2023-01-10T15:06:52.537Z,17.88
2023-01-10T15:08:57.740Z,25.13
2023-01-10T15:11:06.854Z,19.27
2023-01-10T15:13:12.298Z,14.18
2023-01-10T15:15:19.351Z,16.40
2023-01-10T15:17:22.297Z,13.60
2023-01-10T15:19:25.636Z,17.40
2023-01-10T15:21:27.796Z,15.52
2023-01-10T15:23:39.116Z,19.42
2023-01-10T15:25:42.402Z,19.08
2023-01-10T15:27:47.368Z,17.27
2023-01-10T15:29:49.452Z,18.77
2023-01-10T15:31:55.513Z,14.70
2023-01-10T15:33:58.715Z,15.52
2023-01-10T15:36:07.387Z,18.67
2023-01-10T15:38:14.928Z,15.13
2023-01-10T15:40:22.833Z,12.27
2023-01-10T15:42:24.895Z,19.17
2023-01-10T15:44:40.074Z,16.15
2023-01-10T15:46:55.314Z,15.63
2023-01-10T15:49:01.714Z,18.35
2023-01-10T15:51:15.528Z,22.60
2023-01-10T15:53:17.527Z,19.38
2023-01-10T15:55:41.812Z,15.48
2023-01-10T15:57:43.941Z,23.30
2023-01-10T15:59:50.271Z,17.88
2023-01-10T16:01:59.086Z,22.58
2023-01-10T16:04:04.970Z,23.92
2023-01-10T16:06:10.105Z,24.15
2023-01-10T16:08:12.448Z,19.60
2023-01-10T16:10:25.992Z,29.58
2023-01-10T16:12:43.307Z,22.17
2023-01-10T16:14:45.313Z,21.17
2023-01-10T16:16:47.246Z,25.40
2023-01-10T16:18:49.344Z,32.25
2023-01-10T16:20:53.944Z,33.10
2023-01-10T16:22:56.879Z,26.63
2023-01-10T16:24:58.873Z,35.40
2023-01-10T16:27:06.075Z,31.15
2023-01-10T16:29:08.144Z,24.98
2023-01-10T16:31:12.796Z,36.92
2023-01-10T16:33:17.914Z,27.00
2023-01-10T16:35:20.460Z,47.03
2023-01-10T16:37:22.464Z,30.10
2023-01-10T16:39:24.541Z,39.05
2023-01-10T16:41:36.355Z,33.30
2023-01-10T16:43:38.280Z,33.72
2023-01-10T16:45:41.625Z,32.97
2023-01-10T16:47:43.695Z,33.25
2023-01-10T16:49:47.077Z,38.28
2023-01-10T16:51:49.226Z,36.30
2023-01-10T16:53:52.132Z,34.63
2023-01-10T16:55:54.183Z,26.80
2023-01-10T16:57:56.740Z,30.75
2023-01-10T16:59:58.660Z,31.52
2023-01-10T17:02:00.761Z,20.90
2023-01-10T17:04:04.403Z,26.13
2023-01-10T17:06:06.828Z,17.23
2023-01-10T17:08:16.453Z,18.67
2023-01-10T17:10:18.488Z,21.63
2023-01-10T17:12:20.746Z,21.65
2023-01-10T17:14:23.433Z,19.77
2023-01-10T17:16:25.581Z,31.85
2023-01-10T17:18:28.850Z,16.98
2023-01-10T17:20:31.029Z,16.45
2023-01-10T17:22:33.267Z,18.85
2023-01-10T17:24:36.306Z,15.85
2023-01-10T17:26:38.309Z,19.63
2023-01-10T17:28:41.457Z,17.33
2023-01-10T17:30:44.148Z,19.25
2023-01-10T17:32:46.137Z,13.55
2023-01-10T17:34:48.272Z,14.20
2023-01-10T17:36:50.273Z,20.60
2023-01-10T17:38:52.263Z,15.88
2023-01-10T17:40:54.872Z,14.40
2023-01-10T17:42:56.909Z,17.38
2023-01-10T17:44:58.912Z,13.48
2023-01-10T17:47:02.694Z,10.48
2023-01-10T17:49:04.931Z,16.08
2023-01-10T17:51:07.820Z,12.43
2023-01-10T17:53:10.472Z,13.60
2023-01-10T17:55:12.692Z,13.00
2023-01-10T17:57:15.142Z,7.82
2023-01-10T17:59:17.206Z,10.57
2023-01-10T18:01:24.827Z,9.18
2023-01-10T18:03:27.423Z,6.28
2023-01-10T18:05:29.369Z,7.53
2023-01-10T18:07:31.413Z,8.00
2023-01-10T18:09:33.361Z,7.32
2023-01-10T18:11:35.640Z,8.13
2023-01-10T18:13:37.715Z,11.70
2023-01-10T18:15:43.165Z,7.50
2023-01-10T18:17:45.957Z,4.88
2023-01-10T18:19:48.114Z,5.90
2023-01-10T18:21:50.129Z,10.38
2023-01-10T18:23:57.101Z,7.90
2023-01-10T18:26:03.336Z,6.22
2023-01-10T18:28:05.709Z,4.50
2023-01-10T18:30:08.748Z,9.38
2023-01-10T18:32:11.163Z,5.28
2023-01-10T18:34:13.136Z,3.63
2023-01-10T18:36:17.506Z,6.35
2023-01-10T18:38:19.627Z,3.53
2023-01-10T18:40:22.540Z,2.65
2023-01-10T18:42:24.546Z,6.75
2023-01-10T18:44:26.588Z,4.20
2023-01-10T18:46:29.217Z,4.55
2023-01-10T18:48:31.377Z,5.93
2023-01-10T18:50:33.467Z,4.78
2023-01-10T18:52:35.607Z,3.50
2023-01-10T18:54:37.538Z,5.43
2023-01-10T18:56:39.935Z,7.35
2023-01-10T18:58:42.972Z,5.80
2023-01-10T19:00:45.277Z,5.10
2023-01-10T19:02:47.593Z,7.43
2023-01-10T19:04:51.546Z,6.22
2023-01-10T19:06:55.557Z,7.25
2023-01-10T19:08:58.716Z,7.32
2023-01-10T19:11:12.977Z,6.13
2023-01-10T19:13:16.316Z,4.40
2023-01-10T19:15:18.462Z,10.95
2023-01-10T19:17:22.465Z,6.88
2023-01-10T19:19:24.604Z,5.28
2023-01-10T19:21:27.539Z,6.28
2023-01-10T19:23:30.646Z,5.72
2023-01-10T19:25:35.431Z,7.72
2023-01-10T19:27:37.476Z,7.25
2023-01-10T19:29:39.445Z,4.25
2023-01-10T19:31:42.595Z,5.38
2023-01-10T19:33:46.324Z,4.70
2023-01-10T19:35:48.393Z,3.92
2023-01-10T19:37:50.400Z,4.80
2023-01-10T19:39:52.546Z,5.05
2023-01-10T19:41:54.582Z,7.57
2023-01-10T19:43:58.271Z,4.00
2023-01-10T19:46:05.461Z,4.07
2023-01-10T19:48:07.567Z,5.55
2023-01-10T19:50:10.446Z,4.68
2023-01-10T19:52:12.517Z,2.75
2023-01-10T19:54:14.472Z,6.22
2023-01-10T19:56:22.070Z,5.30
2023-01-10T19:58:24.025Z,4.88
2023-01-10T20:00:26.145Z,3.60
2023-01-10T20:02:28.128Z,7.20
2023-01-10T20:04:30.128Z,6.60
2023-01-10T20:06:35.179Z,5.57
2023-01-10T20:08:37.136Z,7.78
2023-01-10T20:10:39.146Z,7.35
2023-01-10T20:12:41.145Z,10.90
2023-01-10T20:14:43.111Z,9.05
2023-01-10T20:16:46.046Z,8.32
2023-01-10T20:18:49.282Z,8.02
2023-01-10T20:20:51.307Z,3.35
2023-01-10T20:22:54.848Z,12.02
2023-01-10T20:27:04.561Z,6.05
2023-01-10T20:29:07.053Z,7.30
2023-01-10T20:31:13.157Z,5.63
2023-01-10T20:33:15.228Z,7.50
2023-01-10T20:35:22.178Z,4.65
2023-01-10T20:37:25.070Z,6.13
2023-01-10T20:39:27.291Z,7.85
2023-01-10T20:41:31.200Z,9.52
2023-01-10T20:43:33.590Z,4.78
2023-01-10T20:45:35.559Z,5.15
2023-01-10T20:47:37.561Z,6.90
2023-01-10T20:49:39.684Z,8.93
2023-01-10T20:51:41.624Z,4.13
2023-01-10T20:53:46.617Z,7.75
2023-01-10T20:55:59.090Z,6.18
2023-01-10T20:58:01.964Z,4.43
2023-01-10T21:00:05.003Z,6.45
2023-01-10T21:02:07.272Z,3.75
2023-01-10T21:04:09.391Z,7.93
2023-01-10T21:06:14.727Z,5.85
2023-01-10T21:08:18.307Z,5.50
2023-01-10T21:10:20.715Z,5.63
2023-01-10T21:12:26.776Z,3.95
2023-01-10T21:14:30.638Z,8.23
2023-01-10T21:16:32.854Z,5.38
2023-01-10T21:18:41.365Z,6.07
2023-01-10T21:20:44.935Z,3.30
2023-01-10T21:22:46.977Z,2.25
2023-01-10T21:24:50.244Z,5.18
2023-01-10T21:26:52.417Z,4.57
2023-01-10T21:28:55.216Z,2.63
2023-01-10T21:30:57.787Z,5.38
2023-01-10T21:33:00.826Z,11.70
2023-01-10T21:35:02.855Z,6.40
2023-01-10T21:37:04.967Z,5.18
2023-01-10T21:39:07.077Z,6.07
2023-01-10T21:41:14.277Z,4.22
2023-01-10T21:43:16.356Z,9.35
2023-01-10T21:45:19.185Z,63.13
2023-01-10T21:47:21.357Z,15.88
2023-01-10T21:49:23.547Z,7.55
2023-01-10T21:51:25.530Z,6.45
2023-01-10T21:53:28.808Z,6.68
2023-01-10T21:55:31.029Z,7.43
2023-01-10T21:57:33.055Z,4.25
2023-01-10T21:59:39.540Z,6.20
2023-01-10T22:01:41.589Z,7.47
2023-01-10T22:03:45.908Z,4.70
2023-01-10T22:05:48.023Z,8.23
2023-01-10T22:07:50.031Z,4.18
2023-01-10T22:09:52.517Z,4.97
2023-01-10T22:11:54.566Z,11.98
2023-01-10T22:13:57.623Z,8.90
2023-01-10T22:16:01.563Z,6.95
2023-01-10T22:18:03.815Z,6.35
2023-01-10T22:20:06.824Z,9.13
2023-01-10T22:22:09.713Z,8.02
2023-01-10T22:24:12.265Z,3.75
2023-01-10T22:26:16.286Z,5.43
2023-01-10T22:28:18.496Z,6.50
2023-01-10T22:30:20.676Z,10.55
2023-01-10T22:32:22.911Z,7.40
2023-01-10T22:34:24.905Z,8.95
2023-01-10T22:36:27.183Z,8.70
2023-01-10T22:38:30.093Z,3.60
2023-01-10T22:40:32.144Z,10.73
2023-01-10T22:42:34.563Z,4.05
2023-01-10T22:44:36.640Z,2.88
2023-01-10T22:46:38.716Z,2.92
2023-01-10T22:48:40.804Z,3.05
2023-01-10T22:50:49.301Z,3.63
2023-01-10T22:52:51.784Z,3.92
2023-01-10T22:54:53.829Z,4.85
2023-01-10T22:56:55.902Z,3.40
2023-01-10T22:58:57.927Z,6.63
2023-01-10T23:01:02.704Z,12.23
2023-01-10T23:03:04.794Z,6.68
2023-01-10T23:05:07.541Z,6.88
2023-01-10T23:07:11.072Z,10.63
2023-01-10T23:09:13.184Z,5.97
2023-01-10T23:11:17.360Z,5.70
2023-01-10T23:13:19.606Z,4.80
2023-01-10T23:15:21.621Z,8.50
2023-01-10T23:17:23.993Z,4.85
2023-01-10T23:19:26.095Z,6.15
2023-01-10T23:21:29.537Z,10.95
2023-01-10T23:23:32.040Z,6.65
2023-01-10T23:25:34.075Z,7.78
2023-01-10T23:27:36.205Z,4.70
2023-01-10T23:29:38.197Z,8.35
2023-01-10T23:31:40.179Z,5.05
2023-01-10T23:33:42.192Z,6.72
2023-01-10T23:35:44.102Z,7.03
2023-01-10T23:37:46.060Z,4.05
2023-01-10T23:39:48.193Z,4.88
2023-01-10T23:41:50.315Z,7.78
2023-01-10T23:43:52.319Z,9.75
2023-01-10T23:45:54.453Z,10.23
2023-01-10T23:47:56.492Z,7.95
2023-01-10T23:49:58.578Z,11.70
2023-01-10T23:52:00.558Z,6.65
2023-01-10T23:54:02.576Z,6.22
2023-01-10T23:56:07.352Z,8.55
2023-01-10T23:58:09.395Z,8.15
